sensor_id;sensor_type;location;lat;lon;timestamp;P1;durP1;ratioP1;P2;durP2;ratioP2
26582;SDS011;14230;45.382;10.998;2022-09-13T00:02:02;7.10;;;3.30;;
26582;SDS011;14230;45.382;10.998;2022-09-13T00:04:29;7.20;;;3.38;;
26582;SDS011;14230;45.382;10.998;2022-09-13T00:06:56;5.35;;;2.97;;
26582;SDS011;14230;45.382;10.998;2022-09-13T00:09:24;7.50;;;3.40;;
26582;SDS011;14230;45.382;10.998;2022-09-13T00:11:51;6.00;;;3.33;;
26582;SDS011;14230;45.382;10.998;2022-09-13T00:14:19;7.03;;;3.03;;
26582;SDS011;14230;45.382;10.998;2022-09-13T00:16:46;6.43;;;2.83;;
26582;SDS011;14230;45.382;10.998;2022-09-13T00:19:14;6.18;;;2.78;;
26582;SDS011;14230;45.382;10.998;2022-09-13T00:21:43;5.60;;;3.20;;
26582;SDS011;14230;45.382;10.998;2022-09-13T00:24:11;5.97;;;2.80;;
26582;SDS011;14230;45.382;10.998;2022-09-13T00:26:38;7.00;;;3.15;;
26582;SDS011;14230;45.382;10.998;2022-09-13T00:29:06;3.80;;;2.78;;
26582;SDS011;14230;45.382;10.998;2022-09-13T00:31:33;4.25;;;2.90;;
26582;SDS011;14230;45.382;10.998;2022-09-13T00:34:01;5.30;;;2.88;;
26582;SDS011;14230;45.382;10.998;2022-09-13T00:36:28;10.20;;;3.05;;
26582;SDS011;14230;45.382;10.998;2022-09-13T00:38:56;7.10;;;3.38;;
26582;SDS011;14230;45.382;10.998;2022-09-13T00:41:23;9.52;;;2.83;;
26582;SDS011;14230;45.382;10.998;2022-09-13T00:43:56;8.35;;;3.50;;
26582;SDS011;14230;45.382;10.998;2022-09-13T00:51:48;4.25;;;3.58;;
26582;SDS011;14230;45.382;10.998;2022-09-13T00:54:19;7.90;;;3.38;;
26582;SDS011;14230;45.382;10.998;2022-09-13T00:56:50;10.63;;;3.05;;
26582;SDS011;14230;45.382;10.998;2022-09-13T00:59:25;7.38;;;3.22;;
26582;SDS011;14230;45.382;10.998;2022-09-13T01:01:58;9.82;;;3.30;;
26582;SDS011;14230;45.382;10.998;2022-09-13T01:04:28;9.68;;;3.55;;
26582;SDS011;14230;45.382;10.998;2022-09-13T01:07:00;3.95;;;2.78;;
26582;SDS011;14230;45.382;10.998;2022-09-13T01:09:31;4.40;;;3.42;;
26582;SDS011;14230;45.382;10.998;2022-09-13T01:12:07;6.25;;;2.90;;
26582;SDS011;14230;45.382;10.998;2022-09-13T01:14:44;5.85;;;3.20;;
26582;SDS011;14230;45.382;10.998;2022-09-13T01:17:13;8.45;;;3.15;;
26582;SDS011;14230;45.382;10.998;2022-09-13T01:19:41;9.13;;;3.45;;
26582;SDS011;14230;45.382;10.998;2022-09-13T01:24:55;7.57;;;3.10;;
26582;SDS011;14230;45.382;10.998;2022-09-13T01:38:36;8.88;;;3.20;;
26582;SDS011;14230;45.382;10.998;2022-09-13T01:46:45;3.70;;;3.00;;
26582;SDS011;14230;45.382;10.998;2022-09-13T01:52:17;5.30;;;3.03;;
26582;SDS011;14230;45.382;10.998;2022-09-13T01:57:55;4.85;;;2.33;;
26582;SDS011;14230;45.382;10.998;2022-09-13T02:00:44;6.45;;;2.67;;
26582;SDS011;14230;45.382;10.998;2022-09-13T02:03:22;6.65;;;2.50;;
26582;SDS011;14230;45.382;10.998;2022-09-13T02:06:01;6.85;;;2.83;;
26582;SDS011;14230;45.382;10.998;2022-09-13T02:08:34;4.05;;;2.20;;
26582;SDS011;14230;45.382;10.998;2022-09-13T02:11:10;4.65;;;2.40;;
26582;SDS011;14230;45.382;10.998;2022-09-13T02:13:44;2.78;;;2.15;;
26582;SDS011;14230;45.382;10.998;2022-09-13T02:16:16;4.55;;;2.10;;
26582;SDS011;14230;45.382;10.998;2022-09-13T02:18:50;5.85;;;2.20;;
26582;SDS011;14230;45.382;10.998;2022-09-13T02:21:26;2.72;;;1.90;;
26582;SDS011;14230;45.382;10.998;2022-09-13T02:24:01;15.88;;;2.65;;
26582;SDS011;14230;45.382;10.998;2022-09-13T02:26:32;3.40;;;1.95;;
26582;SDS011;14230;45.382;10.998;2022-09-13T02:29:03;4.95;;;2.35;;
26582;SDS011;14230;45.382;10.998;2022-09-13T02:31:39;4.45;;;2.25;;
26582;SDS011;14230;45.382;10.998;2022-09-13T02:34:17;6.68;;;2.17;;
26582;SDS011;14230;45.382;10.998;2022-09-13T02:36:52;3.38;;;2.33;;
26582;SDS011;14230;45.382;10.998;2022-09-13T02:39:23;3.97;;;2.25;;
26582;SDS011;14230;45.382;10.998;2022-09-13T02:55:51;3.03;;;2.65;;
26582;SDS011;14230;45.382;10.998;2022-09-13T03:01:27;3.05;;;2.75;;
26582;SDS011;14230;45.382;10.998;2022-09-13T03:03:55;5.22;;;2.60;;
26582;SDS011;14230;45.382;10.998;2022-09-13T03:06:25;6.07;;;2.83;;
26582;SDS011;14230;45.382;10.998;2022-09-13T03:08:53;10.30;;;2.63;;
26582;SDS011;14230;45.382;10.998;2022-09-13T03:17:06;11.25;;;3.33;;
26582;SDS011;14230;45.382;10.998;2022-09-13T03:22:59;5.82;;;2.83;;
26582;SDS011;14230;45.382;10.998;2022-09-13T03:31:26;4.35;;;2.92;;
26582;SDS011;14230;45.382;10.998;2022-09-13T03:34:07;9.95;;;2.90;;
26582;SDS011;14230;45.382;10.998;2022-09-13T03:36:44;5.90;;;3.58;;
26582;SDS011;14230;45.382;10.998;2022-09-13T03:41:56;4.30;;;2.95;;
26582;SDS011;14230;45.382;10.998;2022-09-13T03:44:28;15.80;;;3.28;;
26582;SDS011;14230;45.382;10.998;2022-09-13T03:46:59;3.78;;;2.88;;
26582;SDS011;14230;45.382;10.998;2022-09-13T03:49:29;5.18;;;2.75;;
26582;SDS011;14230;45.382;10.998;2022-09-13T03:51:57;5.63;;;2.95;;
26582;SDS011;14230;45.382;10.998;2022-09-13T03:54:27;9.07;;;3.00;;
26582;SDS011;14230;45.382;10.998;2022-09-13T03:57:04;11.00;;;3.72;;
26582;SDS011;14230;45.382;10.998;2022-09-13T03:59:44;10.70;;;3.40;;
26582;SDS011;14230;45.382;10.998;2022-09-13T04:02:14;5.40;;;3.35;;
26582;SDS011;14230;45.382;10.998;2022-09-13T04:04:43;8.10;;;3.65;;
26582;SDS011;14230;45.382;10.998;2022-09-13T04:07:12;5.38;;;3.28;;
26582;SDS011;14230;45.382;10.998;2022-09-13T04:09:45;12.93;;;3.30;;
26582;SDS011;14230;45.382;10.998;2022-09-13T04:12:13;7.88;;;3.20;;
26582;SDS011;14230;45.382;10.998;2022-09-13T04:14:42;7.93;;;3.45;;
26582;SDS011;14230;45.382;10.998;2022-09-13T04:17:09;3.15;;;2.83;;
26582;SDS011;14230;45.382;10.998;2022-09-13T04:19:38;4.53;;;3.60;;
26582;SDS011;14230;45.382;10.998;2022-09-13T04:22:06;8.57;;;3.42;;
26582;SDS011;14230;45.382;10.998;2022-09-13T04:24:33;7.07;;;3.10;;
26582;SDS011;14230;45.382;10.998;2022-09-13T04:27:02;10.18;;;3.00;;
26582;SDS011;14230;45.382;10.998;2022-09-13T04:29:30;7.82;;;3.45;;
26582;SDS011;14230;45.382;10.998;2022-09-13T04:31:58;6.82;;;3.78;;
26582;SDS011;14230;45.382;10.998;2022-09-13T04:34:26;7.97;;;3.72;;
26582;SDS011;14230;45.382;10.998;2022-09-13T04:36:53;7.13;;;3.15;;
26582;SDS011;14230;45.382;10.998;2022-09-13T04:39:21;9.45;;;3.72;;
26582;SDS011;14230;45.382;10.998;2022-09-13T04:41:50;9.05;;;3.97;;
26582;SDS011;14230;45.382;10.998;2022-09-13T04:44:20;9.80;;;3.33;;
26582;SDS011;14230;45.382;10.998;2022-09-13T04:46:50;6.15;;;4.25;;
26582;SDS011;14230;45.382;10.998;2022-09-13T04:49:17;6.65;;;4.00;;
26582;SDS011;14230;45.382;10.998;2022-09-13T04:51:46;6.20;;;3.92;;
26582;SDS011;14230;45.382;10.998;2022-09-13T04:54:14;5.95;;;3.80;;
26582;SDS011;14230;45.382;10.998;2022-09-13T04:56:45;6.38;;;3.90;;
26582;SDS011;14230;45.382;10.998;2022-09-13T04:59:13;6.20;;;3.72;;
26582;SDS011;14230;45.382;10.998;2022-09-13T05:01:41;9.18;;;3.92;;
26582;SDS011;14230;45.382;10.998;2022-09-13T05:04:09;7.88;;;4.22;;
26582;SDS011;14230;45.382;10.998;2022-09-13T05:06:36;7.28;;;4.03;;
26582;SDS011;14230;45.382;10.998;2022-09-13T05:09:04;7.65;;;5.28;;
26582;SDS011;14230;45.382;10.998;2022-09-13T05:11:31;8.80;;;4.97;;
26582;SDS011;14230;45.382;10.998;2022-09-13T05:13:59;6.00;;;4.10;;
26582;SDS011;14230;45.382;10.998;2022-09-13T05:16:28;8.65;;;4.30;;
26582;SDS011;14230;45.382;10.998;2022-09-13T05:18:58;6.22;;;3.60;;
26582;SDS011;14230;45.382;10.998;2022-09-13T05:21:26;9.57;;;4.82;;
26582;SDS011;14230;45.382;10.998;2022-09-13T05:23:54;6.75;;;3.72;;
26582;SDS011;14230;45.382;10.998;2022-09-13T05:26:27;8.80;;;4.22;;
26582;SDS011;14230;45.382;10.998;2022-09-13T05:28:57;8.73;;;4.07;;
26582;SDS011;14230;45.382;10.998;2022-09-13T05:31:33;7.15;;;3.75;;
26582;SDS011;14230;45.382;10.998;2022-09-13T05:34:04;9.75;;;4.15;;
26582;SDS011;14230;45.382;10.998;2022-09-13T05:36:39;12.75;;;4.57;;
26582;SDS011;14230;45.382;10.998;2022-09-13T05:39:12;9.07;;;4.05;;
26582;SDS011;14230;45.382;10.998;2022-09-13T05:42:01;9.38;;;4.18;;
26582;SDS011;14230;45.382;10.998;2022-09-13T05:44:28;10.10;;;4.07;;
26582;SDS011;14230;45.382;10.998;2022-09-13T05:46:55;9.05;;;3.72;;
26582;SDS011;14230;45.382;10.998;2022-09-13T05:49:23;13.63;;;5.07;;
26582;SDS011;14230;45.382;10.998;2022-09-13T05:51:51;12.18;;;3.95;;
26582;SDS011;14230;45.382;10.998;2022-09-13T05:54:18;11.10;;;4.30;;
26582;SDS011;14230;45.382;10.998;2022-09-13T05:56:45;11.60;;;4.35;;
26582;SDS011;14230;45.382;10.998;2022-09-13T05:59:13;10.60;;;3.88;;
26582;SDS011;14230;45.382;10.998;2022-09-13T06:01:40;8.20;;;4.03;;
26582;SDS011;14230;45.382;10.998;2022-09-13T06:04:08;13.68;;;3.88;;
26582;SDS011;14230;45.382;10.998;2022-09-13T06:06:38;11.15;;;4.03;;
26582;SDS011;14230;45.382;10.998;2022-09-13T06:09:05;10.07;;;3.75;;
26582;SDS011;14230;45.382;10.998;2022-09-13T06:11:34;14.38;;;3.80;;
26582;SDS011;14230;45.382;10.998;2022-09-13T06:14:01;8.68;;;3.38;;
26582;SDS011;14230;45.382;10.998;2022-09-13T06:16:29;5.97;;;3.38;;
26582;SDS011;14230;45.382;10.998;2022-09-13T06:18:57;7.93;;;3.28;;
26582;SDS011;14230;45.382;10.998;2022-09-13T06:21:25;15.32;;;3.17;;
26582;SDS011;14230;45.382;10.998;2022-09-13T06:23:55;8.75;;;2.70;;
26582;SDS011;14230;45.382;10.998;2022-09-13T06:26:23;7.85;;;2.55;;
26582;SDS011;14230;45.382;10.998;2022-09-13T06:28:53;6.93;;;2.70;;
26582;SDS011;14230;45.382;10.998;2022-09-13T06:31:23;8.80;;;3.15;;
26582;SDS011;14230;45.382;10.998;2022-09-13T06:33:59;8.73;;;3.65;;
26582;SDS011;14230;45.382;10.998;2022-09-13T06:36:28;11.52;;;4.00;;
26582;SDS011;14230;45.382;10.998;2022-09-13T06:38:57;11.15;;;3.42;;
26582;SDS011;14230;45.382;10.998;2022-09-13T06:41:26;8.10;;;3.10;;
26582;SDS011;14230;45.382;10.998;2022-09-13T06:43:54;10.10;;;3.42;;
26582;SDS011;14230;45.382;10.998;2022-09-13T06:46:28;12.40;;;3.40;;
26582;SDS011;14230;45.382;10.998;2022-09-13T06:48:58;9.15;;;3.10;;
26582;SDS011;14230;45.382;10.998;2022-09-13T06:51:26;16.40;;;3.83;;
26582;SDS011;14230;45.382;10.998;2022-09-13T06:53:55;68.60;;;10.63;;
26582;SDS011;14230;45.382;10.998;2022-09-13T06:56:27;33.15;;;6.68;;
26582;SDS011;14230;45.382;10.998;2022-09-13T06:58:57;9.15;;;3.05;;
26582;SDS011;14230;45.382;10.998;2022-09-13T07:01:27;8.65;;;3.15;;
26582;SDS011;14230;45.382;10.998;2022-09-13T07:03:57;8.85;;;3.17;;
26582;SDS011;14230;45.382;10.998;2022-09-13T07:06:30;6.00;;;2.90;;
26582;SDS011;14230;45.382;10.998;2022-09-13T07:09:03;8.25;;;3.05;;
26582;SDS011;14230;45.382;10.998;2022-09-13T07:11:34;9.53;;;2.67;;
26582;SDS011;14230;45.382;10.998;2022-09-13T07:14:03;5.00;;;2.33;;
26582;SDS011;14230;45.382;10.998;2022-09-13T07:16:33;5.03;;;2.50;;
26582;SDS011;14230;45.382;10.998;2022-09-13T07:19:04;4.05;;;2.22;;
26582;SDS011;14230;45.382;10.998;2022-09-13T07:21:42;4.60;;;2.40;;
26582;SDS011;14230;45.382;10.998;2022-09-13T07:24:10;6.13;;;2.20;;
26582;SDS011;14230;45.382;10.998;2022-09-13T07:26:38;7.18;;;3.03;;
26582;SDS011;14230;45.382;10.998;2022-09-13T07:29:06;3.47;;;2.55;;
26582;SDS011;14230;45.382;10.998;2022-09-13T07:31:40;7.10;;;2.53;;
26582;SDS011;14230;45.382;10.998;2022-09-13T07:34:13;4.80;;;2.20;;
26582;SDS011;14230;45.382;10.998;2022-09-13T07:36:46;4.03;;;1.92;;
26582;SDS011;14230;45.382;10.998;2022-09-13T07:39:15;6.45;;;2.20;;
26582;SDS011;14230;45.382;10.998;2022-09-13T07:41:48;5.63;;;2.20;;
26582;SDS011;14230;45.382;10.998;2022-09-13T07:44:16;6.63;;;1.80;;
26582;SDS011;14230;45.382;10.998;2022-09-13T07:46:44;5.28;;;2.05;;
26582;SDS011;14230;45.382;10.998;2022-09-13T07:49:12;4.18;;;1.85;;
26582;SDS011;14230;45.382;10.998;2022-09-13T07:51:42;4.65;;;1.65;;
26582;SDS011;14230;45.382;10.998;2022-09-13T07:54:13;2.85;;;1.50;;
26582;SDS011;14230;45.382;10.998;2022-09-13T07:56:43;3.20;;;1.77;;
26582;SDS011;14230;45.382;10.998;2022-09-13T07:59:12;2.55;;;2.00;;
26582;SDS011;14230;45.382;10.998;2022-09-13T08:01:42;3.53;;;1.90;;
26582;SDS011;14230;45.382;10.998;2022-09-13T08:04:12;9.18;;;2.00;;
26582;SDS011;14230;45.382;10.998;2022-09-13T08:09:12;7.78;;;2.55;;
26582;SDS011;14230;45.382;10.998;2022-09-13T08:11:41;3.88;;;2.53;;
26582;SDS011;14230;45.382;10.998;2022-09-13T08:14:12;4.30;;;2.50;;
26582;SDS011;14230;45.382;10.998;2022-09-13T08:16:41;2.88;;;2.50;;
26582;SDS011;14230;45.382;10.998;2022-09-13T08:19:12;6.65;;;2.75;;
26582;SDS011;14230;45.382;10.998;2022-09-13T08:21:44;2.83;;;2.47;;
26582;SDS011;14230;45.382;10.998;2022-09-13T08:24:21;5.20;;;2.83;;
26582;SDS011;14230;45.382;10.998;2022-09-13T08:26:49;6.10;;;3.30;;
26582;SDS011;14230;45.382;10.998;2022-09-13T08:29:18;4.93;;;2.90;;
26582;SDS011;14230;45.382;10.998;2022-09-13T08:31:45;6.75;;;2.88;;
26582;SDS011;14230;45.382;10.998;2022-09-13T08:34:15;7.70;;;2.28;;
26582;SDS011;14230;45.382;10.998;2022-09-13T08:36:44;4.20;;;2.60;;
26582;SDS011;14230;45.382;10.998;2022-09-13T08:39:11;4.28;;;2.35;;
26582;SDS011;14230;45.382;10.998;2022-09-13T08:50:58;2.90;;;2.53;;
26582;SDS011;14230;45.382;10.998;2022-09-13T09:03:48;4.25;;;2.67;;
26582;SDS011;14230;45.382;10.998;2022-09-13T09:06:22;3.65;;;2.97;;
26582;SDS011;14230;45.382;10.998;2022-09-13T09:09:03;7.07;;;2.60;;
26582;SDS011;14230;45.382;10.998;2022-09-13T09:11:40;4.35;;;2.80;;
26582;SDS011;14230;45.382;10.998;2022-09-13T09:14:17;4.07;;;2.95;;
26582;SDS011;14230;45.382;10.998;2022-09-13T09:17:01;3.67;;;3.33;;
26582;SDS011;14230;45.382;10.998;2022-09-13T09:19:35;6.60;;;2.95;;
26582;SDS011;14230;45.382;10.998;2022-09-13T09:22:15;4.90;;;2.42;;
26582;SDS011;14230;45.382;10.998;2022-09-13T09:24:45;7.43;;;3.28;;
26582;SDS011;14230;45.382;10.998;2022-09-13T09:27:17;3.40;;;2.60;;
26582;SDS011;14230;45.382;10.998;2022-09-13T09:29:53;4.70;;;2.88;;
26582;SDS011;14230;45.382;10.998;2022-09-13T09:32:30;5.03;;;2.63;;
26582;SDS011;14230;45.382;10.998;2022-09-13T09:40:34;6.55;;;3.10;;
26582;SDS011;14230;45.382;10.998;2022-09-13T09:43:11;4.85;;;2.65;;
26582;SDS011;14230;45.382;10.998;2022-09-13T09:45:45;7.07;;;3.40;;
26582;SDS011;14230;45.382;10.998;2022-09-13T09:48:15;3.75;;;2.67;;
26582;SDS011;14230;45.382;10.998;2022-09-13T09:50:46;5.75;;;3.28;;
26582;SDS011;14230;45.382;10.998;2022-09-13T09:53:18;8.40;;;3.42;;
26582;SDS011;14230;45.382;10.998;2022-09-13T09:58:36;5.85;;;3.58;;
26582;SDS011;14230;45.382;10.998;2022-09-13T10:01:13;5.10;;;3.60;;
26582;SDS011;14230;45.382;10.998;2022-09-13T10:03:50;5.65;;;3.53;;
26582;SDS011;14230;45.382;10.998;2022-09-13T10:06:24;5.90;;;3.80;;
26582;SDS011;14230;45.382;10.998;2022-09-13T10:08:58;5.78;;;3.00;;
26582;SDS011;14230;45.382;10.998;2022-09-13T10:11:50;11.70;;;4.25;;
26582;SDS011;14230;45.382;10.998;2022-09-13T10:14:26;5.85;;;3.72;;
26582;SDS011;14230;45.382;10.998;2022-09-13T10:17:43;8.00;;;3.17;;
26582;SDS011;14230;45.382;10.998;2022-09-13T10:19:58;7.40;;;3.30;;
26582;SDS011;14230;45.382;10.998;2022-09-13T10:22:47;6.03;;;2.83;;
26582;SDS011;14230;45.382;10.998;2022-09-13T10:25:43;4.85;;;3.53;;
26582;SDS011;14230;45.382;10.998;2022-09-13T10:28:21;5.55;;;3.60;;
26582;SDS011;14230;45.382;10.998;2022-09-13T10:30:53;8.70;;;4.75;;
26582;SDS011;14230;45.382;10.998;2022-09-13T10:33:50;7.43;;;5.10;;
26582;SDS011;14230;45.382;10.998;2022-09-13T10:36:25;5.63;;;4.15;;
26582;SDS011;14230;45.382;10.998;2022-09-13T10:39:19;7.38;;;5.25;;
26582;SDS011;14230;45.382;10.998;2022-09-13T10:41:50;9.77;;;4.88;;
26582;SDS011;14230;45.382;10.998;2022-09-13T10:44:29;5.72;;;4.95;;
26582;SDS011;14230;45.382;10.998;2022-09-13T10:47:21;4.40;;;3.53;;
26582;SDS011;14230;45.382;10.998;2022-09-13T10:52:45;7.78;;;4.80;;
26582;SDS011;14230;45.382;10.998;2022-09-13T10:55:25;7.25;;;4.85;;
26582;SDS011;14230;45.382;10.998;2022-09-13T11:00:23;4.57;;;3.80;;
26582;SDS011;14230;45.382;10.998;2022-09-13T11:13:44;9.50;;;5.38;;
26582;SDS011;14230;45.382;10.998;2022-09-13T11:24:38;10.68;;;4.72;;
26582;SDS011;14230;45.382;10.998;2022-09-13T11:30:08;8.68;;;5.43;;
26582;SDS011;14230;45.382;10.998;2022-09-13T11:32:58;17.73;;;6.80;;
26582;SDS011;14230;45.382;10.998;2022-09-13T11:41:01;9.23;;;6.97;;
26582;SDS011;14230;45.382;10.998;2022-09-13T11:44:10;20.83;;;6.53;;
26582;SDS011;14230;45.382;10.998;2022-09-13T11:47:10;13.32;;;5.80;;
26582;SDS011;14230;45.382;10.998;2022-09-13T11:50:08;6.45;;;4.65;;
26582;SDS011;14230;45.382;10.998;2022-09-13T11:55:37;11.75;;;6.55;;
26582;SDS011;14230;45.382;10.998;2022-09-13T11:58:28;17.85;;;6.68;;
26582;SDS011;14230;45.382;10.998;2022-09-13T12:01:02;8.15;;;5.78;;
26582;SDS011;14230;45.382;10.998;2022-09-13T12:03:40;9.68;;;6.00;;
26582;SDS011;14230;45.382;10.998;2022-09-13T12:06:23;8.80;;;5.75;;
26582;SDS011;14230;45.382;10.998;2022-09-13T12:09:02;8.70;;;6.27;;
26582;SDS011;14230;45.382;10.998;2022-09-13T12:11:40;9.77;;;5.07;;
26582;SDS011;14230;45.382;10.998;2022-09-13T12:14:16;6.80;;;4.07;;
26582;SDS011;14230;45.382;10.998;2022-09-13T12:16:49;16.92;;;5.30;;
26582;SDS011;14230;45.382;10.998;2022-09-13T12:21:58;5.57;;;3.70;;
26582;SDS011;14230;45.382;10.998;2022-09-13T12:29:48;8.50;;;3.80;;
26582;SDS011;14230;45.382;10.998;2022-09-13T12:32:18;13.15;;;4.13;;
26582;SDS011;14230;45.382;10.998;2022-09-13T12:49:47;8.27;;;3.90;;
26582;SDS011;14230;45.382;10.998;2022-09-13T13:03:26;18.25;;;6.57;;
26582;SDS011;14230;45.382;10.998;2022-09-13T13:06:07;8.77;;;4.60;;
26582;SDS011;14230;45.382;10.998;2022-09-13T13:08:52;16.23;;;5.05;;
26582;SDS011;14230;45.382;10.998;2022-09-13T13:11:23;7.88;;;4.35;;
26582;SDS011;14230;45.382;10.998;2022-09-13T13:14:02;9.90;;;3.88;;
26582;SDS011;14230;45.382;10.998;2022-09-13T13:16:36;14.57;;;4.47;;
26582;SDS011;14230;45.382;10.998;2022-09-13T13:19:27;7.13;;;3.45;;
26582;SDS011;14230;45.382;10.998;2022-09-13T13:25:25;10.05;;;2.78;;
26582;SDS011;14230;45.382;10.998;2022-09-13T13:27:56;6.50;;;3.60;;
26582;SDS011;14230;45.382;10.998;2022-09-13T13:35:47;10.27;;;3.58;;
26582;SDS011;14230;45.382;10.998;2022-09-13T13:38:29;6.32;;;3.45;;
26582;SDS011;14230;45.382;10.998;2022-09-13T13:57:27;7.65;;;2.83;;
26582;SDS011;14230;45.382;10.998;2022-09-13T14:00:16;9.75;;;3.42;;
26582;SDS011;14230;45.382;10.998;2022-09-13T14:24:36;6.93;;;4.00;;
26582;SDS011;14230;45.382;10.998;2022-09-13T14:27:04;13.85;;;3.75;;
26582;SDS011;14230;45.382;10.998;2022-09-13T14:29:35;9.15;;;3.08;;
26582;SDS011;14230;45.382;10.998;2022-09-13T14:32:04;10.65;;;3.53;;
26582;SDS011;14230;45.382;10.998;2022-09-13T14:34:35;11.53;;;3.03;;
26582;SDS011;14230;45.382;10.998;2022-09-13T14:37:05;5.22;;;2.55;;
26582;SDS011;14230;45.382;10.998;2022-09-13T14:39:59;6.40;;;3.17;;
26582;SDS011;14230;45.382;10.998;2022-09-13T14:42:38;7.95;;;3.28;;
26582;SDS011;14230;45.382;10.998;2022-09-13T14:48:04;5.88;;;2.92;;
26582;SDS011;14230;45.382;10.998;2022-09-13T14:50:37;5.65;;;3.30;;
26582;SDS011;14230;45.382;10.998;2022-09-13T14:53:13;6.45;;;3.88;;
26582;SDS011;14230;45.382;10.998;2022-09-13T14:55:54;6.38;;;3.50;;
26582;SDS011;14230;45.382;10.998;2022-09-13T14:58:28;16.38;;;5.30;;
26582;SDS011;14230;45.382;10.998;2022-09-13T15:01:06;20.88;;;4.22;;
26582;SDS011;14230;45.382;10.998;2022-09-13T15:03:43;7.25;;;3.35;;
26582;SDS011;14230;45.382;10.998;2022-09-13T15:06:27;11.95;;;3.40;;
26582;SDS011;14230;45.382;10.998;2022-09-13T15:09:21;7.50;;;3.58;;
26582;SDS011;14230;45.382;10.998;2022-09-13T15:11:55;11.45;;;3.67;;
26582;SDS011;14230;45.382;10.998;2022-09-13T15:14:25;5.65;;;3.25;;
26582;SDS011;14230;45.382;10.998;2022-09-13T15:16:58;11.95;;;3.75;;
26582;SDS011;14230;45.382;10.998;2022-09-13T15:24:56;7.70;;;3.47;;
26582;SDS011;14230;45.382;10.998;2022-09-13T15:27:30;8.82;;;3.70;;
26582;SDS011;14230;45.382;10.998;2022-09-13T15:30:19;9.68;;;3.60;;
26582;SDS011;14230;45.382;10.998;2022-09-13T15:35:36;7.00;;;3.58;;
26582;SDS011;14230;45.382;10.998;2022-09-13T15:41:01;6.15;;;3.80;;
26582;SDS011;14230;45.382;10.998;2022-09-13T15:43:29;10.45;;;3.38;;
26582;SDS011;14230;45.382;10.998;2022-09-13T15:45:57;11.90;;;4.10;;
26582;SDS011;14230;45.382;10.998;2022-09-13T15:48:34;9.77;;;3.25;;
26582;SDS011;14230;45.382;10.998;2022-09-13T15:51:09;7.55;;;3.00;;
26582;SDS011;14230;45.382;10.998;2022-09-13T15:53:41;6.75;;;2.90;;
26582;SDS011;14230;45.382;10.998;2022-09-13T15:56:11;5.55;;;3.13;;
26582;SDS011;14230;45.382;10.998;2022-09-13T15:58:52;6.03;;;3.58;;
26582;SDS011;14230;45.382;10.998;2022-09-13T16:01:20;6.75;;;3.10;;
26582;SDS011;14230;45.382;10.998;2022-09-13T16:03:47;9.00;;;3.20;;
26582;SDS011;14230;45.382;10.998;2022-09-13T16:06:15;3.90;;;3.20;;
26582;SDS011;14230;45.382;10.998;2022-09-13T16:08:45;8.25;;;3.28;;
26582;SDS011;14230;45.382;10.998;2022-09-13T16:11:12;6.70;;;3.28;;
26582;SDS011;14230;45.382;10.998;2022-09-13T16:13:40;5.85;;;3.25;;
26582;SDS011;14230;45.382;10.998;2022-09-13T16:16:10;5.90;;;3.30;;
26582;SDS011;14230;45.382;10.998;2022-09-13T16:18:41;12.40;;;3.70;;
26582;SDS011;14230;45.382;10.998;2022-09-13T16:21:08;7.43;;;4.95;;
26582;SDS011;14230;45.382;10.998;2022-09-13T16:23:36;8.88;;;5.68;;
26582;SDS011;14230;45.382;10.998;2022-09-13T16:26:03;14.35;;;6.47;;
26582;SDS011;14230;45.382;10.998;2022-09-13T16:28:32;11.27;;;5.60;;
26582;SDS011;14230;45.382;10.998;2022-09-13T16:30:59;10.52;;;5.40;;
26582;SDS011;14230;45.382;10.998;2022-09-13T16:33:27;10.73;;;4.93;;
26582;SDS011;14230;45.382;10.998;2022-09-13T16:35:54;7.68;;;4.40;;
26582;SDS011;14230;45.382;10.998;2022-09-13T16:38:27;7.70;;;4.63;;
26582;SDS011;14230;45.382;10.998;2022-09-13T16:40:55;8.40;;;5.13;;
26582;SDS011;14230;45.382;10.998;2022-09-13T16:43:22;9.15;;;4.40;;
26582;SDS011;14230;45.382;10.998;2022-09-13T16:45:50;8.20;;;4.28;;
26582;SDS011;14230;45.382;10.998;2022-09-13T16:48:17;12.18;;;5.30;;
26582;SDS011;14230;45.382;10.998;2022-09-13T16:50:45;12.07;;;4.43;;
26582;SDS011;14230;45.382;10.998;2022-09-13T16:53:12;10.50;;;4.63;;
26582;SDS011;14230;45.382;10.998;2022-09-13T16:55:39;9.48;;;4.43;;
26582;SDS011;14230;45.382;10.998;2022-09-13T16:58:07;8.13;;;4.13;;
26582;SDS011;14230;45.382;10.998;2022-09-13T17:00:34;9.77;;;3.67;;
26582;SDS011;14230;45.382;10.998;2022-09-13T17:03:02;12.70;;;4.60;;
26582;SDS011;14230;45.382;10.998;2022-09-13T17:05:29;7.90;;;4.35;;
26582;SDS011;14230;45.382;10.998;2022-09-13T17:07:57;5.65;;;4.07;;
26582;SDS011;14230;45.382;10.998;2022-09-13T17:10:24;10.88;;;3.90;;
26582;SDS011;14230;45.382;10.998;2022-09-13T17:12:52;10.48;;;4.95;;
26582;SDS011;14230;45.382;10.998;2022-09-13T17:15:19;13.35;;;7.60;;
26582;SDS011;14230;45.382;10.998;2022-09-13T17:17:47;12.60;;;8.98;;
26582;SDS011;14230;45.382;10.998;2022-09-13T17:20:15;15.25;;;8.32;;
26582;SDS011;14230;45.382;10.998;2022-09-13T17:22:42;17.88;;;8.63;;
26582;SDS011;14230;45.382;10.998;2022-09-13T17:25:10;14.98;;;7.97;;
26582;SDS011;14230;45.382;10.998;2022-09-13T17:27:37;11.10;;;7.70;;
26582;SDS011;14230;45.382;10.998;2022-09-13T17:30:05;12.43;;;8.68;;
26582;SDS011;14230;45.382;10.998;2022-09-13T17:32:33;12.07;;;7.85;;
26582;SDS011;14230;45.382;10.998;2022-09-13T17:35:01;14.48;;;8.55;;
26582;SDS011;14230;45.382;10.998;2022-09-13T17:37:28;11.40;;;8.10;;
26582;SDS011;14230;45.382;10.998;2022-09-13T17:39:56;12.40;;;8.45;;
26582;SDS011;14230;45.382;10.998;2022-09-13T17:42:24;15.70;;;8.85;;
26582;SDS011;14230;45.382;10.998;2022-09-13T17:44:51;13.90;;;9.23;;
26582;SDS011;14230;45.382;10.998;2022-09-13T17:47:19;14.30;;;8.32;;
26582;SDS011;14230;45.382;10.998;2022-09-13T17:49:46;14.30;;;8.40;;
26582;SDS011;14230;45.382;10.998;2022-09-13T17:52:14;17.60;;;9.00;;
26582;SDS011;14230;45.382;10.998;2022-09-13T17:54:41;13.25;;;8.70;;
26582;SDS011;14230;45.382;10.998;2022-09-13T17:57:09;17.08;;;7.45;;
26582;SDS011;14230;45.382;10.998;2022-09-13T17:59:40;12.32;;;8.13;;
26582;SDS011;14230;45.382;10.998;2022-09-13T18:02:07;10.98;;;7.18;;
26582;SDS011;14230;45.382;10.998;2022-09-13T18:04:36;16.65;;;7.13;;
26582;SDS011;14230;45.382;10.998;2022-09-13T18:07:03;10.20;;;6.43;;
26582;SDS011;14230;45.382;10.998;2022-09-13T18:09:30;11.05;;;5.97;;
26582;SDS011;14230;45.382;10.998;2022-09-13T18:11:58;11.93;;;6.22;;
26582;SDS011;14230;45.382;10.998;2022-09-13T18:14:25;33.97;;;7.47;;
26582;SDS011;14230;45.382;10.998;2022-09-13T18:16:53;15.00;;;8.52;;
26582;SDS011;14230;45.382;10.998;2022-09-13T18:19:23;12.57;;;7.40;;
26582;SDS011;14230;45.382;10.998;2022-09-13T18:22:10;17.50;;;8.57;;
26582;SDS011;14230;45.382;10.998;2022-09-13T18:24:38;20.75;;;8.70;;
26582;SDS011;14230;45.382;10.998;2022-09-13T18:27:05;12.95;;;7.70;;
26582;SDS011;14230;45.382;10.998;2022-09-13T18:29:33;11.32;;;6.82;;
26582;SDS011;14230;45.382;10.998;2022-09-13T18:32:00;11.15;;;6.80;;
26582;SDS011;14230;45.382;10.998;2022-09-13T18:34:28;17.00;;;6.40;;
26582;SDS011;14230;45.382;10.998;2022-09-13T18:36:55;17.77;;;6.90;;
26582;SDS011;14230;45.382;10.998;2022-09-13T18:39:22;12.57;;;5.90;;
26582;SDS011;14230;45.382;10.998;2022-09-13T18:41:50;9.15;;;5.63;;
26582;SDS011;14230;45.382;10.998;2022-09-13T18:44:18;13.57;;;6.47;;
26582;SDS011;14230;45.382;10.998;2022-09-13T18:46:45;12.80;;;5.20;;